Time;durP1;ratioP1;P1;durP2;ratioP2;P2;SDS_P1;SDS_P2;PMS_P1;PMS_P2;Temp;Humidity;BMP_temperature;BMP_pressure;BME280_temperature;BME280_humidity;BME280_pressure;Samples;Min_cycle;Max_cycle;Signal;HPM_P1;HPM_P2
2023/01/29 00:02:04;;;;;;;16.13;9.30;;;;;;;3.39;100.00;102679.09;5050700;28;20477;-73
2023/01/29 00:04:30;;;;;;;15.27;8.77;;;;;;;3.45;100.00;102681.28;5046093;28;20477;-74
2023/01/29 00:06:55;;;;;;;12.38;7.70;;;;;;;3.46;100.00;102677.84;5053162;28;20032;-74
2023/01/29 00:09:20;;;;;;;15.25;8.15;;;;;;;3.38;100.00;102672.97;5051567;28;20028;-73
2023/01/29 00:11:46;;;;;;;19.80;8.93;;;;;;;3.36;100.00;102666.78;5048836;28;20033;-73
2023/01/29 00:14:11;;;;;;;22.17;8.98;;;;;;;3.42;100.00;102665.41;5049492;28;20024;-73
2023/01/29 00:16:36;;;;;;;14.90;9.60;;;;;;;3.42;100.00;102660.19;5054091;28;20166;-73
2023/01/29 00:19:02;;;;;;;14.75;8.48;;;;;;;3.42;100.00;102668.00;5055217;28;20400;-73
2023/01/29 00:21:29;;;;;;;13.13;8.35;;;;;;;3.29;100.00;102669.69;5053632;28;20396;-73
2023/01/29 00:23:55;;;;;;;14.40;8.60;;;;;;;3.36;100.00;102660.66;5052790;28;20183;-74
2023/01/29 00:26:21;;;;;;;17.15;9.93;;;;;;;3.35;100.00;102667.56;5053484;28;20112;-73
2023/01/29 00:28:46;;;;;;;16.08;9.75;;;;;;;3.37;100.00;102665.97;5038047;28;20511;-73
2023/01/29 00:31:16;;;;;;;18.05;9.32;;;;;;;3.41;100.00;102674.03;5054168;28;20036;-73
2023/01/29 00:33:41;;;;;;;17.77;9.70;;;;;;;3.36;100.00;102661.56;5053516;28;20021;-73
2023/01/29 00:36:09;;;;;;;18.48;10.48;;;;;;;3.33;100.00;102661.31;5047238;28;20500;-74
2023/01/29 00:38:36;;;;;;;15.23;9.90;;;;;;;3.35;100.00;102658.81;5049323;28;20036;-74
2023/01/29 00:46:41;;;;;;;16.92;9.55;;;;;;;3.24;100.00;102633.72;5053423;28;20388;-74
2023/01/29 00:49:07;;;;;;;18.17;9.60;;;;;;;3.27;100.00;102639.13;5054801;28;20017;-73
2023/01/29 00:51:33;;;;;;;17.27;9.73;;;;;;;3.27;100.00;102632.25;5053441;28;20076;-73
2023/01/29 00:53:58;;;;;;;23.55;9.70;;;;;;;3.30;100.00;102632.47;5052522;28;20056;-73
2023/01/29 00:56:24;;;;;;;24.80;10.40;;;;;;;3.27;100.00;102632.25;5040155;28;20150;-73
2023/01/29 00:58:50;;;;;;;20.63;11.18;;;;;;;3.30;100.00;102627.28;5052906;28;20557;-74
2023/01/29 01:01:15;;;;;;;22.10;11.32;;;;;;;3.27;100.00;102631.31;5051480;28;20029;-73
2023/01/29 01:03:44;;;;;;;15.48;10.57;;;;;;;3.36;100.00;102625.13;5052056;28;20029;-73
2023/01/29 01:06:10;;;;;;;18.45;11.30;;;;;;;3.35;100.00;102632.81;5041703;28;20043;-74
2023/01/29 01:11:21;;;;;;;17.60;10.77;;;;;;;3.25;100.00;102619.91;5048205;28;20053;-73
2023/01/29 01:13:48;;;;;;;17.48;10.73;;;;;;;3.33;100.00;102634.41;5046720;28;20482;-74
2023/01/29 01:16:17;;;;;;;18.15;10.40;;;;;;;3.36;100.00;102634.63;5045658;28;20021;-74
2023/01/29 01:18:45;;;;;;;23.42;11.02;;;;;;;3.33;100.00;102637.00;5036713;28;20021;-74
2023/01/29 01:21:11;;;;;;;20.83;11.73;;;;;;;3.36;100.00;102627.75;5048836;28;20103;-74
2023/01/29 01:23:36;;;;;;;21.23;11.60;;;;;;;3.30;100.00;102629.88;5049771;28;20108;-74
2023/01/29 01:26:06;;;;;;;21.35;10.68;;;;;;;3.27;100.00;102642.66;5052420;28;20021;-73
2023/01/29 01:28:32;;;;;;;17.55;10.82;;;;;;;3.19;100.00;102635.97;5052658;28;20037;-73
2023/01/29 01:31:15;;;;;;;19.35;10.55;;;;;;;3.28;100.00;102636.63;5052000;28;20033;-73
2023/01/29 01:33:40;;;;;;;20.02;11.27;;;;;;;3.32;100.00;102638.72;5051451;28;20032;-73
2023/01/29 01:36:09;;;;;;;17.95;10.52;;;;;;;3.31;100.00;102642.09;5052091;28;20087;-72
2023/01/29 01:38:43;;;;;;;20.58;11.55;;;;;;;3.30;100.00;102634.19;5052390;28;20462;-74
2023/01/29 01:41:12;;;;;;;;;;;;;;;3.38;100.00;102643.47;5046952;28;20027;-74
2023/01/29 01:43:54;;;;;;;20.30;10.00;;;;;;;3.31;100.00;102641.16;5056890;28;19919;-75
2023/01/29 01:46:20;;;;;;;20.00;11.43;;;;;;;3.30;100.00;102650.69;5049406;28;20025;-74
2023/01/29 01:48:51;;;;;;;18.05;10.10;;;;;;;3.26;100.00;102652.97;5040811;28;20026;-73
2023/01/29 01:51:18;;;;;;;18.60;10.55;;;;;;;3.27;100.00;102645.25;5052512;28;20027;-74
2023/01/29 01:53:54;;;;;;;20.38;10.95;;;;;;;3.33;100.00;102640.50;5048214;28;20389;-74
2023/01/29 01:56:37;;;;;;;16.25;9.65;;;;;;;3.35;100.00;102644.13;5052372;28;20025;-73
2023/01/29 01:59:06;;;;;;;20.23;11.70;;;;;;;3.38;100.00;102633.06;5047388;28;20033;-73
2023/01/29 02:01:32;;;;;;;20.20;11.05;;;;;;;3.33;100.00;102637.91;5050554;28;20020;-73
2023/01/29 02:10:18;;;;;;;20.38;11.82;;;;;;;3.29;100.00;102620.25;5050545;28;20124;-74
2023/01/29 02:12:45;;;;;;;20.25;11.15;;;;;;;3.25;100.00;102626.00;5051175;28;20072;-72
2023/01/29 02:15:11;;;;;;;19.58;11.80;;;;;;;3.29;100.00;102625.44;5047079;28;20528;-73
2023/01/29 02:17:36;;;;;;;23.30;11.98;;;;;;;3.33;100.00;102619.69;5050114;28;20043;-74
2023/01/29 02:20:16;;;;;;;24.17;12.00;;;;;;;3.21;100.00;102618.78;5051532;28;20033;-73
2023/01/29 02:22:58;;;;;;;24.25;13.00;;;;;;;3.23;100.00;102619.81;5051594;28;20082;-73
2023/01/29 02:25:44;;;;;;;23.27;12.13;;;;;;;3.25;100.00;102626.00;5049673;28;20078;-73
2023/01/29 02:28:20;;;;;;;20.27;11.95;;;;;;;3.28;100.00;102631.44;5051887;28;20028;-73
2023/01/29 02:30:48;;;;;;;23.77;13.00;;;;;;;3.29;100.00;102630.66;5051785;28;20402;-74
2023/01/29 02:33:40;;;;;;;26.83;13.60;;;;;;;3.33;100.00;102624.88;5051177;28;20037;-73
2023/01/29 02:36:54;;;;;;;25.38;14.07;;;;;;;3.32;100.00;102630.91;5047941;28;20476;-74
2023/01/29 02:39:32;;;;;;;21.73;12.27;;;;;;;3.33;100.00;102637.91;5047154;28;20076;-73
2023/01/29 02:42:16;;;;;;;23.52;13.27;;;;;;;3.35;100.00;102636.34;5043231;28;20020;-74
2023/01/29 02:44:59;;;;;;;26.83;13.98;;;;;;;3.26;100.00;102643.44;5050799;28;20037;-73
2023/01/29 02:47:38;;;;;;;20.30;13.45;;;;;;;3.25;100.00;102625.13;5043218;28;20020;-74
2023/01/29 02:50:06;;;;;;;23.67;14.27;;;;;;;3.37;100.00;102631.25;5049369;28;20137;-73
2023/01/29 02:52:42;;;;;;;28.88;15.35;;;;;;;3.27;100.00;102619.25;5049974;28;20025;-72
2023/01/29 02:55:20;;;;;;;28.00;15.07;;;;;;;3.23;100.00;102626.69;5048610;28;20029;-74
2023/01/29 02:57:51;;;;;;;28.88;14.77;;;;;;;3.24;100.00;102629.41;5039399;28;20056;-74
2023/01/29 03:00:37;;;;;;;23.60;14.45;;;;;;;3.29;100.00;102621.97;5051116;28;20021;-74
2023/01/29 03:03:15;;;;;;;27.13;14.07;;;;;;;3.31;100.00;102616.09;5050179;28;20029;-74
2023/01/29 03:05:58;;;;;;;26.10;13.57;;;;;;;3.19;100.00;102622.97;5048043;28;20094;-73
2023/01/29 03:08:42;;;;;;;24.42;14.05;;;;;;;3.23;100.00;102606.81;5043111;28;20127;-74
2023/01/29 03:11:13;;;;;;;28.83;14.20;;;;;;;3.24;100.00;102611.19;5051390;28;20021;-74
2023/01/29 03:13:55;;;;;;;28.65;14.95;;;;;;;3.17;100.00;102607.25;5049070;28;20075;-72
2023/01/29 03:16:27;;;;;;;24.88;13.45;;;;;;;3.14;100.00;102600.91;5041782;28;20059;-73
2023/01/29 03:19:16;;;;;;;26.63;13.73;;;;;;;3.17;100.00;102606.31;5038659;28;20441;-74
2023/01/29 03:21:50;;;;;;;24.88;13.90;;;;;;;3.18;100.00;102608.16;5048129;28;20107;-74
2023/01/29 03:32:38;;;;;;;25.25;13.48;;;;;;;3.25;100.00;102589.59;5044257;28;20053;-73
2023/01/29 03:35:07;;;;;;;24.67;14.30;;;;;;;3.32;100.00;102597.09;5046566;28;20033;-73
2023/01/29 03:37:44;;;;;;;25.08;12.98;;;;;;;3.25;100.00;102592.19;5045864;28;20029;-73
2023/01/29 03:40:10;;;;;;;27.83;14.40;;;;;;;3.22;100.00;102597.19;5045161;28;20029;-73
2023/01/29 03:42:50;;;;;;;23.10;14.18;;;;;;;3.18;100.00;102597.75;5049263;28;20033;-74
2023/01/29 03:45:25;;;;;;;24.02;14.70;;;;;;;3.25;100.00;102599.09;5050705;28;20033;-73
2023/01/29 03:48:03;;;;;;;26.45;14.50;;;;;;;3.26;100.00;102596.63;5048554;28;20036;-74
2023/01/29 03:50:42;;;;;;;25.58;14.40;;;;;;;3.26;100.00;102588.81;5040919;28;20035;-74
2023/01/29 03:53:47;;;;;;;25.60;14.02;;;;;;;3.26;100.00;102580.09;5047550;28;20025;-73
2023/01/29 03:56:31;;;;;;;26.10;13.98;;;;;;;3.23;100.00;102585.06;4988070;28;20030;-73
2023/01/29 03:59:13;;;;;;;;;;;;;;;3.22;100.00;102578.97;5046865;28;20475;-74
2023/01/29 04:01:43;;;;;;;25.25;13.55;;;;;;;3.16;100.00;102573.28;5050998;28;19947;-75
2023/01/29 04:04:30;;;;;;;25.02;13.15;;;;;;;3.13;100.00;102567.88;5045546;28;20024;-73
2023/01/29 04:07:07;;;;;;;22.40;12.15;;;;;;;3.17;100.00;102567.31;5047891;28;20380;-73
2023/01/29 04:10:01;;;;;;;20.80;12.27;;;;;;;3.19;100.00;102574.44;5050971;28;20029;-73
2023/01/29 04:12:37;;;;;;;24.05;13.52;;;;;;;3.18;100.00;102569.13;5047566;28;20032;-74
2023/01/29 04:15:08;;;;;;;23.55;12.85;;;;;;;3.21;100.00;102571.94;5046470;28;20065;-73
2023/01/29 04:17:40;;;;;;;23.90;13.18;;;;;;;3.15;100.00;102568.91;5048723;28;20032;-73
2023/01/29 04:20:06;;;;;;;22.75;12.38;;;;;;;3.15;100.00;102572.41;5041251;28;20393;-74
2023/01/29 04:22:35;;;;;;;24.73;14.27;;;;;;;3.12;100.00;102555.66;5046965;28;20033;-74
2023/01/29 04:25:07;;;;;;;24.85;13.50;;;;;;;3.20;100.00;102547.63;5038988;28;20078;-74
2023/01/29 04:27:52;;;;;;;23.40;12.52;;;;;;;3.15;100.00;102550.69;5044779;28;20017;-73
2023/01/29 04:30:32;;;;;;;21.67;12.27;;;;;;;3.16;100.00;102547.28;5039501;28;20131;-74
2023/01/29 04:33:31;;;;;;;23.15;12.57;;;;;;;3.26;100.00;102549.78;5048115;28;20527;-74
2023/01/29 04:36:17;;;;;;;27.77;13.68;;;;;;;3.25;100.00;102534.06;5049112;28;20083;-73
2023/01/29 04:39:21;;;;;;;22.35;13.43;;;;;;;3.26;100.00;102539.38;5052206;28;20036;-73
2023/01/29 04:41:54;;;;;;;23.45;13.57;;;;;;;3.26;100.00;102523.78;5051142;28;20039;-73
2023/01/29 04:44:31;;;;;;;21.25;12.35;;;;;;;3.23;100.00;102517.44;5053183;28;20377;-74
2023/01/29 04:47:19;;;;;;;19.67;12.57;;;;;;;3.24;100.00;102520.13;5052259;28;20027;-73
2023/01/29 04:49:49;;;;;;;22.52;13.02;;;;;;;3.23;100.00;102533.97;5044205;28;20025;-74
2023/01/29 04:52:33;;;;;;;22.70;12.48;;;;;;;3.25;100.00;102523.66;5050504;28;20047;-74
2023/01/29 04:55:07;;;;;;;;;;;;;;;3.14;100.00;102523.75;5046822;28;20032;-74
2023/01/29 04:58:09;;;;;;;19.20;12.25;;;;;;;3.17;100.00;102517.88;5048859;28;19917;-74
2023/01/29 05:00:39;;;;;;;22.42;13.00;;;;;;;3.15;100.00;102522.09;5040309;28;20043;-74
2023/01/29 05:03:08;;;;;;;22.35;13.55;;;;;;;3.19;100.00;102524.13;5050139;28;20075;-73
2023/01/29 05:05:35;;;;;;;23.67;12.30;;;;;;;3.21;100.00;102517.31;5050336;28;20053;-74
2023/01/29 05:08:02;;;;;;;21.98;13.50;;;;;;;3.17;100.00;102515.28;5051399;28;20033;-73
2023/01/29 05:10:28;;;;;;;23.95;13.45;;;;;;;3.16;100.00;102508.25;5053206;28;20029;-73
2023/01/29 05:13:00;;;;;;;22.15;13.02;;;;;;;3.17;100.00;102510.06;5048901;28;20123;-74
2023/01/29 05:15:38;;;;;;;21.25;11.85;;;;;;;3.20;100.00;102511.22;5049717;28;20033;-74
2023/01/29 05:18:07;;;;;;;22.08;13.02;;;;;;;3.21;100.00;102509.50;5050871;28;20284;-74
2023/01/29 05:20:36;;;;;;;20.13;12.65;;;;;;;3.27;100.00;102507.38;5045731;28;20028;-73
2023/01/29 05:23:01;;;;;;;24.83;12.68;;;;;;;3.26;100.00;102507.25;5053339;28;20064;-74
2023/01/29 05:25:30;;;;;;;18.38;12.05;;;;;;;3.22;100.00;102510.44;5050789;28;20748;-74
2023/01/29 05:28:06;;;;;;;23.02;13.60;;;;;;;3.27;100.00;102503.84;5051559;28;20029;-73
2023/01/29 05:30:33;;;;;;;21.10;11.77;;;;;;;3.22;100.00;102495.72;5051556;28;20035;-75
2023/01/29 05:32:59;;;;;;;24.05;13.25;;;;;;;3.24;100.00;102488.91;5053503;28;20031;-74
2023/01/29 05:35:24;;;;;;;20.83;12.57;;;;;;;3.27;100.00;102486.56;5044615;28;20025;-74
2023/01/29 05:37:50;;;;;;;22.13;12.10;;;;;;;3.25;100.00;102480.31;5049799;28;20059;-74
2023/01/29 05:40:16;;;;;;;22.83;12.88;;;;;;;3.25;100.00;102489.84;5052542;28;20388;-74
2023/01/29 05:42:41;;;;;;;22.02;13.10;;;;;;;3.18;100.00;102483.28;5053226;28;20028;-73
2023/01/29 05:45:07;;;;;;;22.00;13.45;;;;;;;3.20;100.00;102482.59;5051124;28;20025;-74
2023/01/29 05:47:32;;;;;;;25.20;13.93;;;;;;;3.25;100.00;102489.84;5052220;28;20059;-74
2023/01/29 05:49:58;;;;;;;20.80;12.07;;;;;;;3.23;100.00;102491.41;5052645;28;20079;-74
2023/01/29 05:52:23;;;;;;;21.45;13.27;;;;;;;3.20;100.00;102485.22;5049621;28;20086;-74
2023/01/29 05:54:48;;;;;;;24.13;12.88;;;;;;;3.23;100.00;102492.34;5052165;28;20366;-74
2023/01/29 05:57:14;;;;;;;23.95;13.32;;;;;;;3.32;100.00;102487.81;5052583;28;20377;-74
2023/01/29 05:59:39;;;;;;;23.70;13.10;;;;;;;3.36;100.00;102499.31;5051741;28;20025;-74
2023/01/29 06:02:04;;;;;;;23.15;12.73;;;;;;;3.42;100.00;102504.06;5049246;28;20021;-74
2023/01/29 06:04:30;;;;;;;22.80;12.63;;;;;;;3.31;100.00;102490.28;5050908;28;20052;-74
2023/01/29 06:06:55;;;;;;;20.73;11.80;;;;;;;3.35;100.00;102482.81;5051210;28;20033;-74
2023/01/29 06:09:21;;;;;;;26.98;14.10;;;;;;;3.33;100.00;102484.38;5052074;28;20040;-73
2023/01/29 06:11:46;;;;;;;26.13;12.98;;;;;;;3.34;100.00;102483.59;5052686;28;20393;-73
2023/01/29 06:14:12;;;;;;;29.48;13.43;;;;;;;3.28;100.00;102475.34;5050777;28;20378;-73
2023/01/29 06:16:37;;;;;;;26.05;14.25;;;;;;;3.37;100.00;102475.13;5051386;28;20064;-74
2023/01/29 06:19:02;;;;;;;25.02;14.23;;;;;;;3.43;100.00;102480.78;5051918;28;20065;-73
2023/01/29 06:21:28;;;;;;;22.85;13.43;;;;;;;3.32;100.00;102473.88;5044273;28;20028;-73
2023/01/29 06:23:53;;;;;;;19.23;11.68;;;;;;;3.26;100.00;102466.53;5047938;28;20100;-74
2023/01/29 06:26:18;;;;;;;22.98;13.27;;;;;;;3.27;100.00;102468.34;5049969;28;20020;-73
2023/01/29 06:28:48;;;;;;;21.75;13.30;;;;;;;3.41;100.00;102465.84;5052351;28;20033;-74
2023/01/29 06:31:13;;;;;;;24.13;12.77;;;;;;;3.34;100.00;102456.69;5050651;28;20032;-73
2023/01/29 06:33:39;;;;;;;24.58;14.18;;;;;;;3.29;100.00;102471.94;5050701;28;20445;-73
2023/01/29 06:36:04;;;;;;;24.45;13.55;;;;;;;3.35;100.00;102456.78;5043742;28;20066;-73
2023/01/29 06:38:30;;;;;;;24.02;12.88;;;;;;;3.32;100.00;102453.06;5047424;28;20029;-74
2023/01/29 06:40:56;;;;;;;25.75;14.00;;;;;;;3.32;100.00;102458.25;5050590;28;20067;-73
2023/01/29 06:43:24;;;;;;;24.08;13.10;;;;;;;3.41;100.00;102461.53;5050483;28;20457;-74
2023/01/29 06:45:56;;;;;;;24.27;12.98;;;;;;;3.38;100.00;102450.91;5046268;28;20052;-73
2023/01/29 06:48:23;;;;;;;22.08;12.57;;;;;;;3.37;100.00;102455.19;5049801;28;20021;-73
2023/01/29 06:50:49;;;;;;;24.92;13.60;;;;;;;3.36;100.00;102448.19;5044328;28;20330;-74
2023/01/29 06:53:16;;;;;;;21.65;12.90;;;;;;;3.42;100.00;102446.81;5045069;28;20508;-73
2023/01/29 06:55:43;;;;;;;25.50;13.77;;;;;;;3.45;100.00;102452.25;5045492;28;20025;-74
2023/01/29 06:58:11;;;;;;;19.75;12.57;;;;;;;3.44;100.00;102453.94;5051562;28;20112;-73
2023/01/29 07:00:36;;;;;;;21.13;12.52;;;;;;;3.37;100.00;102447.38;5048971;28;20460;-74
2023/01/29 07:03:03;;;;;;;20.60;13.25;;;;;;;3.41;100.00;102448.53;5051710;28;20074;-74
2023/01/29 07:05:30;;;;;;;25.85;12.48;;;;;;;3.35;100.00;102443.78;5044940;28;20064;-72
2023/01/29 07:07:55;;;;;;;22.15;12.52;;;;;;;3.47;100.00;102456.78;5033706;28;20062;-75
2023/01/29 07:10:21;;;;;;;20.08;13.32;;;;;;;3.57;100.00;102455.72;5045503;28;20400;-73
2023/01/29 07:12:47;;;;;;;21.25;12.32;;;;;;;3.44;100.00;102458.25;5044821;28;20102;-74
2023/01/29 07:15:12;;;;;;;25.02;13.60;;;;;;;3.42;100.00;102463.34;5041948;28;20021;-74
2023/01/29 07:17:38;;;;;;;22.33;13.27;;;;;;;3.47;100.00;102456.78;5050959;28;20028;-75
2023/01/29 07:20:05;;;;;;;22.55;13.00;;;;;;;3.49;100.00;102462.09;5051013;28;20032;-74
2023/01/29 07:22:31;;;;;;;21.35;13.75;;;;;;;3.46;100.00;102456.66;5048033;28;20358;-74
2023/01/29 07:24:56;;;;;;;24.95;14.27;;;;;;;3.45;100.00;102455.75;5047767;28;20116;-74
2023/01/29 07:27:21;;;;;;;25.80;13.77;;;;;;;3.44;100.00;102455.66;5048663;28;20025;-74
2023/01/29 07:29:47;;;;;;;28.73;14.15;;;;;;;3.44;100.00;102448.72;5054506;28;20065;-74
2023/01/29 07:32:12;;;;;;;24.35;13.63;;;;;;;3.42;100.00;102467.63;5049765;28;20060;-73
2023/01/29 07:34:37;;;;;;;25.77;13.35;;;;;;;3.42;100.00;102459.81;5049254;28;20033;-73
2023/01/29 07:37:04;;;;;;;25.52;14.45;;;;;;;3.47;100.00;102458.47;5044127;28;20511;-74
2023/01/29 07:39:30;;;;;;;21.40;13.73;;;;;;;3.53;100.00;102453.72;5030391;28;20051;-74
2023/01/29 07:41:55;;;;;;;26.05;13.32;;;;;;;3.42;100.00;102452.00;5046759;28;20465;-73
2023/01/29 07:44:20;;;;;;;23.67;14.00;;;;;;;3.49;100.00;102449.06;5043373;28;20040;-74
2023/01/29 07:46:46;;;;;;;25.42;14.27;;;;;;;3.57;100.00;102442.72;5051740;28;20049;-73
2023/01/29 07:49:11;;;;;;;25.40;14.77;;;;;;;3.51;100.00;102452.69;5054020;28;20031;-74
2023/01/29 07:51:36;;;;;;;29.60;14.48;;;;;;;3.47;100.00;102448.97;5050747;28;20055;-74
2023/01/29 07:54:02;;;;;;;23.27;13.80;;;;;;;3.44;100.00;102440.94;5048621;28;20020;-73
2023/01/29 07:56:27;;;;;;;17.08;10.70;;;;;;;3.40;100.00;102448.41;5048628;28;20021;-74
2023/01/29 07:58:52;;;;;;;25.85;14.43;;;;;;;3.47;100.00;102445.44;5042808;28;20101;-74
2023/01/29 08:01:18;;;;;;;27.30;13.63;;;;;;;3.46;100.00;102433.22;5050461;28;20029;-73
2023/01/29 08:03:43;;;;;;;25.60;13.85;;;;;;;3.49;100.00;102431.75;5042763;28;20021;-73
2023/01/29 08:06:09;;;;;;;22.38;13.77;;;;;;;3.40;100.00;102444.09;5046684;28;20177;-73
2023/01/29 08:08:34;;;;;;;27.50;15.25;;;;;;;3.42;100.00;102441.59;5048963;28;20028;-73
2023/01/29 08:11:01;;;;;;;23.80;14.20;;;;;;;3.46;100.00;102438.44;5045476;28;20025;-73
2023/01/29 08:13:27;;;;;;;23.65;14.48;;;;;;;3.48;100.00;102436.84;5052308;28;20657;-74
2023/01/29 08:15:52;;;;;;;26.30;14.90;;;;;;;3.45;100.00;102432.34;5053960;28;20040;-75
2023/01/29 08:18:17;;;;;;;26.17;15.25;;;;;;;3.50;100.00;102424.84;5043795;28;20029;-74
2023/01/29 08:20:42;;;;;;;26.48;14.40;;;;;;;3.48;100.00;102424.72;5046439;28;20024;-73
2023/01/29 08:23:12;;;;;;;27.35;16.08;;;;;;;3.47;100.00;102424.63;5043224;28;20033;-73
2023/01/29 08:25:38;;;;;;;30.45;15.77;;;;;;;3.48;100.00;102421.25;5047992;28;20024;-74
2023/01/29 08:28:03;;;;;;;26.10;15.00;;;;;;;3.47;100.00;102414.22;5049315;28;20056;-73
2023/01/29 08:30:31;;;;;;;37.35;16.58;;;;;;;3.49;100.00;102417.84;5054528;28;20082;-74
2023/01/29 08:32:56;;;;;;;29.50;14.93;;;;;;;3.50;100.00;102414.44;5052395;28;20093;-73
2023/01/29 08:35:22;;;;;;;25.67;13.77;;;;;;;3.61;100.00;102407.38;5049929;28;20111;-74
2023/01/29 08:37:55;;;;;;;28.23;14.98;;;;;;;3.61;100.00;102408.28;5052986;28;20025;-74
2023/01/29 08:40:21;;;;;;;26.30;16.35;;;;;;;3.60;100.00;102409.09;5048124;28;20616;-73
2023/01/29 08:42:46;;;;;;;27.77;16.05;;;;;;;3.64;100.00;102411.09;5067816;28;20033;-74
2023/01/29 08:45:12;;;;;;;25.88;15.18;;;;;;;3.58;100.00;102401.97;5058469;28;20059;-74
2023/01/29 08:47:37;;;;;;;30.02;15.85;;;;;;;3.69;100.00;102399.31;5051904;28;20029;-72
2023/01/29 08:50:03;;;;;;;26.35;14.57;;;;;;;3.69;100.00;102399.31;5054798;28;20150;-73
2023/01/29 08:52:29;;;;;;;26.50;15.30;;;;;;;3.69;100.00;102401.00;5043155;28;20385;-73
2023/01/29 08:54:54;;;;;;;32.05;17.13;;;;;;;3.59;100.00;102408.97;5051839;28;20044;-73
2023/01/29 08:57:20;;;;;;;30.30;15.85;;;;;;;3.59;100.00;102399.47;5053496;28;20036;-73
2023/01/29 08:59:45;;;;;;;28.52;16.52;;;;;;;3.66;100.00;102396.50;5051884;28;20035;-73
2023/01/29 09:02:10;;;;;;;30.05;15.95;;;;;;;3.74;100.00;102393.53;5043668;28;20469;-74
2023/01/29 09:04:36;;;;;;;27.40;16.35;;;;;;;3.68;100.00;102400.09;5047197;28;20045;-73
2023/01/29 09:07:01;;;;;;;30.75;17.50;;;;;;;3.74;100.00;102393.53;5056116;28;20091;-72
2023/01/29 09:09:26;;;;;;;28.85;16.05;;;;;;;3.75;100.00;102393.63;5051613;28;20040;-74
2023/01/29 09:11:52;;;;;;;32.95;16.80;;;;;;;3.80;100.00;102389.66;5054213;28;20033;-75
2023/01/29 09:14:18;;;;;;;33.58;16.02;;;;;;;3.81;100.00;102391.47;5052433;28;20031;-74
2023/01/29 09:16:43;;;;;;;28.35;16.17;;;;;;;3.84;100.00;102390.78;5051988;28;20032;-73
2023/01/29 09:19:08;;;;;;;27.75;15.40;;;;;;;3.81;100.00;102403.56;5061201;28;20079;-73
2023/01/29 09:21:34;;;;;;;30.98;17.20;;;;;;;3.87;100.00;102398.78;5050979;28;20071;-73
2023/01/29 09:23:59;;;;;;;30.75;17.55;;;;;;;3.85;100.00;102382.16;5053847;28;20036;-75
2023/01/29 09:26:24;;;;;;;32.33;16.65;;;;;;;3.81;100.00;102386.25;5054010;28;20063;-74
2023/01/29 09:28:50;;;;;;;31.17;18.08;;;;;;;3.91;100.00;102389.47;5048944;28;20029;-73
2023/01/29 09:31:15;;;;;;;29.92;16.60;;;;;;;3.89;100.00;102378.94;5050600;28;20021;-73
2023/01/29 09:33:40;;;;;;;28.73;15.40;;;;;;;3.87;100.00;102381.47;5062733;28;20127;-73
2023/01/29 09:36:06;;;;;;;34.08;17.75;;;;;;;3.88;100.00;102382.38;5048664;28;20731;-74
2023/01/29 09:38:31;;;;;;;33.53;17.80;;;;;;;3.93;100.00;102378.38;5057069;28;20041;-74
2023/01/29 09:41:09;;;;;;;33.55;17.73;;;;;;;3.85;100.00;102383.06;5046658;28;20033;-74
2023/01/29 09:43:51;;;;;;;30.42;16.90;;;;;;;3.95;100.00;102389.81;5048302;28;20025;-75
2023/01/29 09:46:23;;;;;;;30.00;17.13;;;;;;;3.93;100.00;102388.78;5052309;28;20111;-74
2023/01/29 09:48:59;;;;;;;32.08;17.60;;;;;;;3.96;100.00;102380.28;5051491;28;20029;-74
2023/01/29 09:51:33;;;;;;;29.70;16.77;;;;;;;3.96;100.00;102385.50;5050103;28;20348;-74
2023/01/29 09:54:13;;;;;;;30.83;17.63;;;;;;;3.90;100.00;102380.75;5050929;28;20087;-75
2023/01/29 09:56:41;;;;;;;34.40;16.55;;;;;;;3.83;100.00;102379.44;5044141;28;20029;-74
2023/01/29 09:59:10;;;;;;;29.98;17.00;;;;;;;3.90;100.00;102379.88;5052806;28;20029;-74
2023/01/29 10:01:49;;;;;;;31.13;16.90;;;;;;;3.85;100.00;102372.66;5053468;28;20033;-74
2023/01/29 10:04:33;;;;;;;31.75;17.20;;;;;;;3.96;100.00;102376.00;5049020;28;20155;-74
2023/01/29 10:07:19;;;;;;;;;;;;;;;3.84;100.00;102372.56;5041823;28;20068;-73
2023/01/29 10:10:06;;;;;;;27.63;16.25;;;;;;;3.96;100.00;102375.06;5054394;28;19924;-74
2023/01/29 10:12:58;;;;;;;33.22;17.90;;;;;;;3.86;100.00;102368.34;5055129;28;20283;-75
2023/01/29 10:15:29;;;;;;;34.25;17.75;;;;;;;3.84;100.00;102372.56;5052291;28;20112;-73
2023/01/29 10:18:18;;;;;;;29.73;17.05;;;;;;;3.92;100.00;102370.44;5059595;28;20028;-74
2023/01/29 10:21:08;;;;;;;36.45;17.92;;;;;;;3.95;100.00;102382.00;5052669;28;20110;-74
2023/01/29 10:23:42;;;;;;;35.40;19.02;;;;;;;3.91;100.00;102376.44;5044007;28;20039;-75
2023/01/29 10:26:11;;;;;;;36.00;18.88;;;;;;;3.89;100.00;102363.31;5042841;28;20052;-74
2023/01/29 10:28:47;;;;;;;29.20;17.38;;;;;;;3.83;100.00;102363.81;5044189;28;20099;-73
2023/01/29 10:31:26;;;;;;;32.45;18.80;;;;;;;3.84;100.00;102356.94;5040374;28;20427;-72
2023/01/29 10:33:55;;;;;;;33.85;17.55;;;;;;;3.77;100.00;102359.88;5042165;28;20028;-73
2023/01/29 10:36:41;;;;;;;35.38;19.35;;;;;;;3.80;100.00;102355.81;5050306;28;20035;-73
2023/01/29 10:39:17;;;;;;;34.45;19.13;;;;;;;3.86;100.00;102352.72;5045414;28;20040;-74
2023/01/29 10:42:08;;;;;;;35.67;17.67;;;;;;;3.80;100.00;102348.00;5049536;28;20029;-72
2023/01/29 10:44:56;;;;;;;39.60;19.30;;;;;;;3.79;100.00;102337.47;5041809;28;20104;-73
2023/01/29 10:47:52;;;;;;;32.70;18.98;;;;;;;3.75;100.00;102335.47;5041966;28;20524;-74
2023/01/29 10:50:42;;;;;;;33.80;18.88;;;;;;;3.88;100.00;102327.69;5046585;28;20029;-74
2023/01/29 10:53:38;;;;;;;35.28;20.48;;;;;;;3.85;100.00;102327.47;5057790;28;20029;-75
2023/01/29 10:56:32;;;;;;;31.92;19.60;;;;;;;3.78;100.00;102323.53;5047846;28;20020;-75
2023/01/29 10:59:07;;;;;;;41.33;19.02;;;;;;;3.87;100.00;102310.25;5045823;28;20040;-75
2023/01/29 11:01:32;;;;;;;35.47;20.08;;;;;;;3.91;100.00;102319.16;5045861;28;20431;-75
2023/01/29 11:04:03;;;;;;;38.97;19.85;;;;;;;3.94;100.00;102304.66;5048231;28;20086;-75
2023/01/29 11:06:31;;;;;;;36.78;19.33;;;;;;;4.01;100.00;102306.84;5046284;28;20477;-75
2023/01/29 11:09:22;;;;;;;32.97;18.67;;;;;;;3.99;100.00;102308.47;5040842;28;20131;-73
2023/01/29 11:11:56;;;;;;;39.58;19.70;;;;;;;4.05;100.00;102303.66;5050444;28;20024;-74
2023/01/29 11:14:27;;;;;;;35.28;19.85;;;;;;;4.14;100.00;102306.00;5044322;28;20472;-75
2023/01/29 11:16:52;;;;;;;33.13;18.38;;;;;;;4.14;100.00;102305.09;5043652;28;20033;-75
2023/01/29 11:19:39;;;;;;;38.83;20.05;;;;;;;4.04;100.00;102307.09;5046217;28;20037;-74
2023/01/29 11:22:05;;;;;;;37.83;19.70;;;;;;;4.11;100.00;102299.66;5061097;28;20036;-75
2023/01/29 11:24:30;;;;;;;33.88;18.83;;;;;;;4.20;100.00;102300.28;5057111;28;20033;-75
2023/01/29 11:26:58;;;;;;;32.88;19.23;;;;;;;4.10;100.00;102310.91;5048159;28;20034;-75
2023/01/29 11:29:37;;;;;;;29.90;17.65;;;;;;;4.21;100.00;102296.88;5050125;28;20021;-74
2023/01/29 11:32:07;;;;;;;36.45;19.17;;;;;;;4.11;100.00;102297.06;5043147;28;20025;-75
2023/01/29 11:34:32;;;;;;;30.35;18.45;;;;;;;4.14;100.00;102286.88;5048580;28;20025;-73
2023/01/29 11:37:02;;;;;;;33.40;19.38;;;;;;;4.16;100.00;102280.91;5048168;28;20366;-73
2023/01/29 11:39:30;;;;;;;31.58;17.83;;;;;;;4.16;100.00;102280.03;5045422;28;20187;-74
2023/01/29 11:42:01;;;;;;;33.58;18.92;;;;;;;4.19;100.00;102268.13;5046791;28;20117;-75
2023/01/29 11:44:32;;;;;;;40.30;19.80;;;;;;;4.24;100.00;102268.41;5050977;28;20029;-75
2023/01/29 11:47:11;;;;;;;29.73;17.27;;;;;;;4.27;100.00;102271.19;5051228;28;20021;-73
2023/01/29 11:49:38;;;;;;;33.88;19.38;;;;;;;4.24;100.00;102262.31;5054149;28;20029;-74
2023/01/29 11:52:07;;;;;;;40.28;20.77;;;;;;;4.16;100.00;102264.41;5049165;28;20411;-74
2023/01/29 11:54:59;;;;;;;36.60;20.33;;;;;;;4.23;100.00;102256.16;5051484;28;20025;-74